Weather at Calzada Larga Airport

Public forecast

Using degrees Celsius for public forecast. Weather courtesy of forecast.io.

Closest aviation weather report (METAR) to Calzada Larga Airport

Closest report is Tocumen International Airport, 11.1 nm (20.6 km) ESE. Retrieved 2021/02/27 02:00 UTC (59 minutes ago):

MPTO 270200Z 20004KT 9999 FEW020 27/22 Q1008 NOSIG

Closest aviation forecast (TAF) to Calzada Larga Airport

Closest forecast is Tocumen International Airport, 11.1 nm (20.6 km) ESE. Retrieved 2021-02-27 00:12 UTC (3 hours ago):

TAF MPTO 270100Z 2700/2806 02006KT 9999 FEW018 TEMPO 2705/2707 00000KT